createdAt,value
2019-05-26T00:00:18.781Z,1003.76
2019-05-26T00:01:17.483Z,1003.78
2019-05-26T00:02:16.035Z,1003.76
2019-05-26T00:03:15.518Z,1003.71
2019-05-26T00:04:14.105Z,1003.76
2019-05-26T00:05:12.777Z,1003.68
2019-05-26T00:06:11.351Z,1003.73
2019-05-26T00:07:09.941Z,1003.75
2019-05-26T00:08:08.473Z,1003.79
2019-05-26T00:09:07.092Z,1003.79
2019-05-26T00:10:05.688Z,1003.79
2019-05-26T00:11:04.278Z,1003.76
2019-05-26T00:12:02.947Z,1003.77
2019-05-26T00:13:01.709Z,1003.78
2019-05-26T00:14:00.479Z,1003.73
2019-05-26T00:14:59.095Z,1003.78
2019-05-26T00:15:57.683Z,1003.78
2019-05-26T00:16:56.276Z,1003.78
2019-05-26T00:17:54.999Z,1003.83
2019-05-26T00:18:53.582Z,1003.78
2019-05-26T00:19:52.147Z,1003.82
2019-05-26T00:20:51.031Z,1003.81
2019-05-26T00:21:49.644Z,1003.75
2019-05-26T00:22:48.180Z,1003.8
2019-05-26T00:23:46.751Z,1003.81
2019-05-26T00:24:45.314Z,1003.76
2019-05-26T00:25:43.956Z,1003.73
2019-05-26T00:26:42.673Z,1003.72
2019-05-26T00:27:41.446Z,1003.78
2019-05-26T00:28:40.005Z,1003.78
2019-05-26T00:29:38.707Z,1003.77
2019-05-26T00:30:37.288Z,1003.84
2019-05-26T00:31:35.886Z,1003.85
2019-05-26T00:32:34.424Z,1003.81
2019-05-26T00:33:33.082Z,1003.82
2019-05-26T00:34:31.641Z,1003.8
2019-05-26T00:35:30.183Z,1003.78
2019-05-26T00:36:28.890Z,1003.84
2019-05-26T00:37:27.479Z,1003.76
2019-05-26T00:38:26.034Z,1003.77
2019-05-26T00:39:24.859Z,1003.78
2019-05-26T00:40:23.461Z,1003.77
2019-05-26T00:41:22.024Z,1003.75
2019-05-26T00:42:20.654Z,1003.75
2019-05-26T00:43:19.364Z,1003.75
2019-05-26T00:44:17.960Z,1003.72
2019-05-26T00:45:16.598Z,1003.69
2019-05-26T00:46:15.304Z,1003.72
2019-05-26T00:47:13.845Z,1003.71
2019-05-26T00:48:12.492Z,1003.68
2019-05-26T00:49:11.037Z,1003.7
2019-05-26T00:50:09.639Z,1003.69
2019-05-26T00:51:08.236Z,1003.69
2019-05-26T00:52:06.980Z,1003.6
2019-05-26T00:53:05.512Z,1003.59
2019-05-26T00:54:04.058Z,1003.64
2019-05-26T00:55:02.871Z,1003.6
2019-05-26T00:56:01.462Z,1003.57
2019-05-26T00:57:00.049Z,1003.6
2019-05-26T00:57:58.701Z,1003.56
2019-05-26T00:58:57.281Z,1003.55
2019-05-26T00:59:55.927Z,1003.6
2019-05-26T01:00:54.478Z,1003.62
2019-05-26T01:01:53.257Z,1003.64
2019-05-26T01:02:51.823Z,1003.59
2019-05-26T01:03:50.422Z,1003.61
2019-05-26T01:04:49.845Z,1003.59
2019-05-26T01:05:48.376Z,1003.59
2019-05-26T01:06:47.170Z,1003.59
2019-05-26T01:07:45.693Z,1003.59
2019-05-26T01:08:44.306Z,1003.6
2019-05-26T01:09:42.942Z,1003.6
2019-05-26T01:10:41.536Z,1003.64
2019-05-26T01:11:40.100Z,1003.6
2019-05-26T01:12:38.841Z,1003.64
2019-05-26T01:13:37.552Z,1003.67
2019-05-26T01:14:36.118Z,1003.66
2019-05-26T01:15:34.865Z,1003.69
2019-05-26T01:16:33.450Z,1003.74
2019-05-26T01:17:32.116Z,1003.77
2019-05-26T01:18:30.974Z,1003.73
2019-05-26T01:19:29.554Z,1003.72
2019-05-26T01:20:28.094Z,1003.73
2019-05-26T01:21:26.751Z,1003.68
2019-05-26T01:22:25.359Z,1003.68
2019-05-26T01:23:23.966Z,1003.66
2019-05-26T01:24:22.535Z,1003.74
2019-05-26T01:25:21.138Z,1003.67
2019-05-26T01:26:19.665Z,1003.74
2019-05-26T01:27:18.360Z,1003.72
2019-05-26T01:28:17.367Z,1003.7
2019-05-26T01:29:15.913Z,1003.71
2019-05-26T01:30:14.496Z,1003.66
2019-05-26T01:31:13.137Z,1003.67
2019-05-26T01:32:11.696Z,1003.7
2019-05-26T01:33:10.320Z,1003.72
2019-05-26T01:34:08.885Z,1003.69
2019-05-26T01:35:07.540Z,1003.72
2019-05-26T01:36:06.112Z,1003.69
2019-05-26T01:37:04.865Z,1003.74
2019-05-26T01:38:03.522Z,1003.76
2019-05-26T01:39:02.105Z,1003.79
2019-05-26T01:40:00.807Z,1003.79
2019-05-26T01:40:59.421Z,1003.8
2019-05-26T01:41:57.990Z,1003.81
2019-05-26T01:42:56.575Z,1003.85
2019-05-26T01:43:55.361Z,1003.84
2019-05-26T01:44:53.949Z,1003.82
2019-05-26T01:45:52.486Z,1003.86
2019-05-26T01:46:51.224Z,1003.85
2019-05-26T01:47:49.788Z,1003.87
2019-05-26T01:50:48.008Z,1003.89
2019-05-26T01:51:46.524Z,1003.9
2019-05-26T01:52:45.381Z,1003.92
2019-05-26T01:53:43.995Z,1003.93
2019-05-26T01:54:42.543Z,1003.93
2019-05-26T01:55:41.103Z,1003.96
2019-05-26T01:56:39.700Z,1003.96
2019-05-26T01:57:38.270Z,1003.92
2019-05-26T01:58:37.092Z,1003.93
2019-05-26T01:59:36.344Z,1003.94
2019-05-26T02:00:34.928Z,1003.92
2019-05-26T02:01:33.607Z,1003.95
2019-05-26T02:02:32.190Z,1003.97
2019-05-26T02:03:31.072Z,1003.97
2019-05-26T02:04:29.763Z,1003.9
2019-05-26T02:05:28.307Z,1003.92
2019-05-26T02:08:11.534Z,1003.94
2019-05-26T02:09:07.134Z,1003.93
2019-05-26T02:10:05.722Z,1003.9
2019-05-26T02:11:04.270Z,1003.85
2019-05-26T02:12:03.076Z,1003.87
2019-05-26T02:13:01.677Z,1003.92
2019-05-26T02:14:00.251Z,1003.88
2019-05-26T02:14:58.815Z,1003.83
2019-05-26T02:15:57.395Z,1003.84
2019-05-26T02:16:55.982Z,1003.81
2019-05-26T02:17:54.572Z,1003.84
2019-05-26T02:18:53.297Z,1003.82
2019-05-26T02:19:51.836Z,1003.81
2019-05-26T02:20:50.543Z,1003.83
2019-05-26T02:21:49.203Z,1003.89
2019-05-26T02:22:47.743Z,1003.87
2019-05-26T02:23:46.339Z,1003.9
2019-05-26T02:24:45.200Z,1003.87
2019-05-26T02:25:43.761Z,1003.86
2019-05-26T02:26:42.345Z,1003.85
2019-05-26T02:27:41.205Z,1003.88
2019-05-26T02:28:39.788Z,1003.88
2019-05-26T02:29:38.421Z,1003.91
2019-05-26T02:36:53.288Z,1003.88
2019-05-26T02:37:51.831Z,1003.9
2019-05-26T02:39:01.715Z,1003.83
2019-05-26T02:39:49.060Z,1003.85
2019-05-26T02:40:47.685Z,1003.85
2019-05-26T02:41:46.284Z,1003.86
2019-05-26T02:42:45.372Z,1003.86
2019-05-26T02:43:43.913Z,1003.81
2019-05-26T02:44:42.478Z,1003.8
2019-05-26T02:45:41.061Z,1003.84
2019-05-26T02:46:39.610Z,1003.82
2019-05-26T02:47:38.160Z,1003.83
2019-05-26T02:48:36.719Z,1003.83
2019-05-26T02:49:35.293Z,1003.81
2019-05-26T02:50:33.851Z,1003.79
2019-05-26T02:51:32.404Z,1003.79
2019-05-26T02:52:31.005Z,1003.72
2019-05-26T02:53:29.620Z,1003.75
2019-05-26T02:54:28.190Z,1003.72
2019-05-26T02:55:27.220Z,1003.7
2019-05-26T02:56:25.793Z,1003.72
2019-05-26T02:57:24.330Z,1003.74
2019-05-26T02:58:22.933Z,1003.75
2019-05-26T02:59:21.470Z,1003.75
2019-05-26T03:00:20.050Z,1003.75
2019-05-26T03:01:18.844Z,1003.79
2019-05-26T03:02:17.356Z,1003.82
2019-05-26T03:03:15.940Z,1003.8
2019-05-26T03:04:14.590Z,1003.8
2019-05-26T03:05:13.263Z,1003.77
2019-05-26T03:06:11.733Z,1003.82
2019-05-26T03:07:10.429Z,1003.82
2019-05-26T03:08:09.027Z,1003.8
2019-05-26T03:09:21.547Z,1003.84
2019-05-26T03:10:06.125Z,1003.88
2019-05-26T03:11:04.874Z,1003.81
2019-05-26T03:12:03.529Z,1003.85
2019-05-26T03:13:02.128Z,1003.87
2019-05-26T03:14:01.043Z,1003.83
2019-05-26T03:14:59.617Z,1003.86
2019-05-26T03:15:58.172Z,1003.88
2019-05-26T03:16:56.730Z,1003.85
2019-05-26T03:17:55.482Z,1003.87
2019-05-26T03:18:54.054Z,1003.84
2019-05-26T03:19:52.783Z,1003.8
2019-05-26T03:20:51.493Z,1003.86
2019-05-26T03:21:50.061Z,1003.86
2019-05-26T03:22:48.694Z,1003.87
2019-05-26T03:23:47.260Z,1003.86
2019-05-26T03:24:45.834Z,1003.87
2019-05-26T03:25:44.438Z,1003.88
2019-05-26T03:26:43.201Z,1003.93
2019-05-26T03:27:41.748Z,1003.89
2019-05-26T03:28:40.312Z,1003.93
2019-05-26T03:29:39.222Z,1003.92
2019-05-26T03:30:37.989Z,1003.85
2019-05-26T03:31:36.422Z,1003.87
2019-05-26T03:32:34.980Z,1003.93
2019-05-26T03:33:33.534Z,1003.88
2019-05-26T03:34:32.107Z,1003.96
2019-05-26T03:35:30.878Z,1003.85
2019-05-26T03:36:29.588Z,1003.87
2019-05-26T03:37:28.244Z,1003.85
2019-05-26T03:38:26.908Z,1003.88
2019-05-26T03:39:42.203Z,1003.86
2019-05-26T03:40:24.033Z,1003.89
2019-05-26T03:41:22.625Z,1003.89
2019-05-26T03:42:21.278Z,1003.9
2019-05-26T03:43:19.847Z,1003.91
2019-05-26T03:44:18.563Z,1003.94
2019-05-26T03:45:17.409Z,1003.88
2019-05-26T03:46:16.000Z,1003.94
2019-05-26T03:47:16.711Z,1003.88
2019-05-26T03:48:13.142Z,1003.91
2019-05-26T03:49:11.722Z,1003.9
2019-05-26T03:50:10.315Z,1003.9
2019-05-26T03:51:09.147Z,1003.93
2019-05-26T03:52:07.595Z,1003.91
2019-05-26T03:53:06.167Z,1003.94
2019-05-26T03:54:05.132Z,1003.92
2019-05-26T03:55:03.688Z,1003.92
2019-05-26T03:56:02.271Z,1003.94
2019-05-26T03:57:00.839Z,1003.92
2019-05-26T03:57:59.361Z,1003.94
2019-05-26T03:58:57.904Z,1003.93
2019-05-26T03:59:56.498Z,1003.97
2019-05-26T04:00:55.113Z,1003.91
2019-05-26T04:01:57.422Z,1003.95
2019-05-26T04:02:52.235Z,1003.94
2019-05-26T04:03:50.843Z,1003.95
2019-05-26T04:04:49.412Z,1003.96
2019-05-26T04:05:47.985Z,1003.97
2019-05-26T04:06:46.847Z,1004
2019-05-26T04:07:45.414Z,1003.98
2019-05-26T04:08:43.998Z,1004.01
2019-05-26T04:10:00.384Z,1004.04
2019-05-26T04:10:41.372Z,1004.04
2019-05-26T04:11:40.019Z,1004.08
2019-05-26T04:12:38.524Z,1004.05
2019-05-26T04:13:37.373Z,1004.1
2019-05-26T04:14:36.022Z,1004.05
2019-05-26T04:15:34.534Z,1004.07
2019-05-26T04:16:33.074Z,1004.08
2019-05-26T04:17:31.663Z,1004.05
2019-05-26T04:18:30.206Z,1004.12
2019-05-26T04:19:29.171Z,1004.12
2019-05-26T04:20:28.040Z,1004.11
2019-05-26T04:21:26.633Z,1004.12
2019-05-26T04:22:25.182Z,1004.12
2019-05-26T04:23:23.748Z,1004.12
2019-05-26T04:24:22.313Z,1004.11
2019-05-26T04:25:20.923Z,1004.14
2019-05-26T04:26:20.040Z,1004.17
2019-05-26T04:27:18.637Z,1004.15
2019-05-26T04:28:17.209Z,1004.1
2019-05-26T04:29:15.758Z,1004.14
2019-05-26T04:30:14.322Z,1004.1
2019-05-26T04:31:12.901Z,1004.13
2019-05-26T04:32:11.466Z,1004.08
2019-05-26T04:33:10.069Z,1004.11
2019-05-26T04:34:08.782Z,1004.12
2019-05-26T04:35:07.466Z,1004.06
2019-05-26T04:36:06.024Z,1004.13
2019-05-26T04:37:04.803Z,1004.06
2019-05-26T04:38:03.373Z,1004.09
2019-05-26T04:39:01.935Z,1004.1
2019-05-26T04:41:42.337Z,1004.13
2019-05-26T04:42:41.151Z,1004.11
2019-05-26T04:43:39.629Z,1004.11
2019-05-26T04:44:38.302Z,1004.12
2019-05-26T04:45:36.863Z,1004.13
2019-05-26T04:46:35.460Z,1004.15
2019-05-26T04:47:34.078Z,1004.16
2019-05-26T04:48:32.651Z,1004.15
2019-05-26T04:49:31.268Z,1004.21
2019-05-26T04:50:29.965Z,1004.18
2019-05-26T04:51:28.803Z,1004.19
2019-05-26T04:52:27.354Z,1004.14
2019-05-26T04:53:25.925Z,1004.13
2019-05-26T04:54:24.512Z,1004.18
2019-05-26T04:55:23.098Z,1004.19
2019-05-26T04:56:21.707Z,1004.2
2019-05-26T04:57:20.274Z,1004.22
2019-05-26T04:58:19.110Z,1004.2
2019-05-26T04:59:17.676Z,1004.2
2019-05-26T05:00:16.262Z,1004.25
2019-05-26T05:01:15.154Z,1004.25
2019-05-26T05:10:12.941Z,1004.27
2019-05-26T05:11:11.490Z,1004.28
2019-05-26T05:12:10.057Z,1004.33
2019-05-26T05:13:08.658Z,1004.29
2019-05-26T05:14:07.453Z,1004.27
2019-05-26T05:15:06.114Z,1004.23
2019-05-26T05:16:04.648Z,1004.25
2019-05-26T05:17:03.211Z,1004.24
2019-05-26T05:18:01.783Z,1004.25
2019-05-26T05:19:00.335Z,1004.26
2019-05-26T05:19:59.188Z,1004.33
2019-05-26T05:20:57.752Z,1004.29
2019-05-26T05:21:56.391Z,1004.3
2019-05-26T05:22:55.181Z,1004.33
2019-05-26T05:23:53.762Z,1004.33
2019-05-26T05:24:52.347Z,1004.29
2019-05-26T05:25:50.906Z,1004.28
2019-05-26T05:26:49.531Z,1004.31
2019-05-26T05:27:48.101Z,1004.25
2019-05-26T05:28:46.964Z,1004.3
2019-05-26T05:29:45.582Z,1004.28
2019-05-26T05:30:44.172Z,1004.31
2019-05-26T05:31:42.848Z,1004.34
2019-05-26T05:32:41.423Z,1004.31
2019-05-26T05:33:39.976Z,1004.32
2019-05-26T05:34:38.527Z,1004.31
2019-05-26T05:35:37.225Z,1004.33
2019-05-26T05:36:35.807Z,1004.33
2019-05-26T05:37:34.371Z,1004.39
2019-05-26T05:38:33.054Z,1004.4
2019-05-26T05:39:31.691Z,1004.36
2019-05-26T05:40:30.395Z,1004.38
2019-05-26T05:41:29.012Z,1004.45
2019-05-26T05:42:27.605Z,1004.45
2019-05-26T05:43:26.162Z,1004.43
2019-05-26T05:44:24.729Z,1004.45
2019-05-26T05:45:23.898Z,1004.46
2019-05-26T05:46:22.482Z,1004.41
2019-05-26T05:47:21.088Z,1004.47
2019-05-26T05:48:19.646Z,1004.44
2019-05-26T05:49:18.216Z,1004.45
2019-05-26T05:50:16.758Z,1004.46
2019-05-26T05:51:15.527Z,1004.46
2019-05-26T05:52:14.108Z,1004.47
2019-05-26T05:53:12.693Z,1004.49
2019-05-26T05:54:11.567Z,1004.45
2019-05-26T05:55:10.122Z,1004.47
2019-05-26T05:56:08.730Z,1004.49
2019-05-26T05:57:07.295Z,1004.52
2019-05-26T05:58:05.900Z,1004.49
2019-05-26T05:59:04.461Z,1004.49
2019-05-26T06:00:03.289Z,1004.48
2019-05-26T06:01:01.829Z,1004.51
2019-05-26T06:02:00.380Z,1004.49
2019-05-26T06:02:59.228Z,1004.51
2019-05-26T06:03:57.845Z,1004.46
2019-05-26T06:04:56.407Z,1004.46
2019-05-26T06:05:54.959Z,1004.45
2019-05-26T06:06:53.598Z,1004.46
2019-05-26T06:07:52.071Z,1004.44
2019-05-26T06:08:51.106Z,1004.45
2019-05-26T06:09:49.680Z,1004.51
2019-05-26T06:10:48.677Z,1004.45
2019-05-26T06:11:47.208Z,1004.48
2019-05-26T06:12:45.796Z,1004.48
2019-05-26T06:13:44.463Z,1004.46
2019-05-26T06:14:43.161Z,1004.49
2019-05-26T06:15:41.770Z,1004.53
2019-05-26T06:16:41.278Z,1004.5
2019-05-26T06:17:39.858Z,1004.48
2019-05-26T06:18:38.492Z,1004.48
2019-05-26T06:19:37.083Z,1004.5
2019-05-26T06:20:35.683Z,1004.53
2019-05-26T06:21:34.381Z,1004.49
2019-05-26T06:22:33.075Z,1004.47
2019-05-26T06:23:31.703Z,1004.48
2019-05-26T06:24:30.256Z,1004.5
2019-05-26T06:25:29.119Z,1004.5
2019-05-26T06:26:27.750Z,1004.5
2019-05-26T06:27:26.540Z,1004.5
2019-05-26T06:28:25.337Z,1004.52
2019-05-26T06:29:23.884Z,1004.56
2019-05-26T06:30:22.694Z,1004.55
2019-05-26T06:31:21.280Z,1004.51
2019-05-26T06:32:19.978Z,1004.54
2019-05-26T06:33:18.544Z,1004.55
2019-05-26T06:34:17.341Z,1004.53
2019-05-26T06:35:15.917Z,1004.53
2019-05-26T06:36:14.512Z,1004.52
2019-05-26T06:37:13.274Z,1004.53
2019-05-26T06:39:57.579Z,1004.49
2019-05-26T06:42:37.717Z,1004.49
2019-05-26T07:08:25.528Z,1004.54
2019-05-26T07:09:24.059Z,1004.54
2019-05-26T07:10:22.698Z,1004.52
2019-05-26T07:11:21.370Z,1004.5
2019-05-26T07:12:19.931Z,1004.5
2019-05-26T07:13:18.543Z,1004.47
2019-05-26T07:14:17.118Z,1004.45
2019-05-26T07:15:15.750Z,1004.46
2019-05-26T07:16:14.289Z,1004.4
2019-05-26T07:17:13.408Z,1004.43
2019-05-26T07:18:11.975Z,1004.46
2019-05-26T07:19:10.658Z,1004.44
2019-05-26T07:20:09.375Z,1004.43
2019-05-26T07:21:07.737Z,1004.41
2019-05-26T07:22:06.307Z,1004.43
2019-05-26T07:23:06.661Z,1004.44
2019-05-26T07:24:03.588Z,1004.44
2019-05-26T07:25:02.671Z,1004.4
2019-05-26T07:26:01.279Z,1004.4
2019-05-26T07:26:59.844Z,1004.37
2019-05-26T07:27:58.387Z,1004.41
2019-05-26T07:28:56.998Z,1004.39
2019-05-26T07:29:55.730Z,1004.41
2019-05-26T07:30:54.306Z,1004.4
2019-05-26T07:31:53.003Z,1004.46
2019-05-26T07:32:51.661Z,1004.45
2019-05-26T07:33:50.208Z,1004.44
2019-05-26T07:34:48.912Z,1004.4
2019-05-26T07:35:49.747Z,1004.43
2019-05-26T07:36:46.047Z,1004.36
2019-05-26T07:37:44.804Z,1004.37
2019-05-26T07:38:43.487Z,1004.37
2019-05-26T07:39:42.077Z,1004.34
2019-05-26T07:40:40.918Z,1004.36
2019-05-26T07:41:39.556Z,1004.34
2019-05-26T07:42:38.138Z,1004.34
2019-05-26T07:43:36.731Z,1004.33
2019-05-26T07:44:35.487Z,1004.32
2019-05-26T07:45:34.106Z,1004.34
2019-05-26T07:46:32.866Z,1004.31
2019-05-26T07:47:31.468Z,1004.32
2019-05-26T07:48:30.002Z,1004.31
2019-05-26T07:49:28.597Z,1004.34
2019-05-26T07:50:27.201Z,1004.29
2019-05-26T07:51:25.771Z,1004.35
2019-05-26T07:52:24.384Z,1004.32
2019-05-26T07:53:23.180Z,1004.3
2019-05-26T07:54:25.384Z,1004.34
2019-05-26T07:55:20.874Z,1004.32
2019-05-26T07:56:19.592Z,1004.33
2019-05-26T07:57:18.103Z,1004.35
2019-05-26T07:58:16.729Z,1004.42
2019-05-26T07:59:15.667Z,1004.35
2019-05-26T08:00:14.259Z,1004.37
2019-05-26T08:01:12.851Z,1004.35
2019-05-26T08:02:11.424Z,1004.35
2019-05-26T08:03:10.113Z,1004.43
2019-05-26T08:04:08.864Z,1004.39
2019-05-26T08:05:07.617Z,1004.33
2019-05-26T08:06:06.104Z,1004.33
2019-05-26T08:07:04.812Z,1004.31
2019-05-26T08:08:12.449Z,1004.36
2019-05-26T08:09:01.961Z,1004.35
2019-05-26T08:10:00.533Z,1004.35
2019-05-26T08:10:59.348Z,1004.35
2019-05-26T08:11:57.957Z,1004.38
2019-05-26T08:12:56.655Z,1004.35
2019-05-26T08:13:55.387Z,1004.39
2019-05-26T08:14:53.962Z,1004.35
2019-05-26T08:15:52.580Z,1004.4
2019-05-26T08:16:51.154Z,1004.42
2019-05-26T08:17:49.715Z,1004.41
2019-05-26T08:18:48.348Z,1004.41
2019-05-26T08:19:47.059Z,1004.39
2019-05-26T08:20:45.762Z,1004.41
2019-05-26T08:21:44.455Z,1004.42
2019-05-26T08:22:43.046Z,1004.44
2019-05-26T08:23:41.620Z,1004.42
2019-05-26T08:24:40.169Z,1004.39
2019-05-26T08:25:38.721Z,1004.36
2019-05-26T08:26:37.288Z,1004.35
2019-05-26T08:27:35.889Z,1004.36
2019-05-26T08:28:34.436Z,1004.35
2019-05-26T08:29:33.185Z,1004.34
2019-05-26T08:30:31.745Z,1004.36
2019-05-26T08:31:30.325Z,1004.31
2019-05-26T08:32:29.169Z,1004.39
2019-05-26T08:33:27.721Z,1004.39
2019-05-26T08:34:26.314Z,1004.36
2019-05-26T08:35:24.957Z,1004.41
2019-05-26T08:36:23.649Z,1004.39
2019-05-26T08:37:22.240Z,1004.39
2019-05-26T08:38:20.910Z,1004.4
2019-05-26T08:39:19.571Z,1004.37
2019-05-26T08:40:18.134Z,1004.33
2019-05-26T08:41:16.811Z,1004.32
2019-05-26T08:42:26.627Z,1004.28
2019-05-26T08:43:14.004Z,1004.34
2019-05-26T08:44:12.569Z,1004.33
2019-05-26T08:45:11.423Z,1004.31
2019-05-26T08:46:09.970Z,1004.29
2019-05-26T08:47:08.554Z,1004.32
2019-05-26T08:48:07.494Z,1004.24
2019-05-26T08:49:06.064Z,1004.27
2019-05-26T08:50:04.674Z,1004.27
2019-05-26T08:51:03.529Z,1004.22
2019-05-26T08:52:02.185Z,1004.27
2019-05-26T08:53:00.987Z,1004.24
2019-05-26T08:53:59.569Z,1004.2
2019-05-26T08:54:58.147Z,1004.2
2019-05-26T08:55:56.731Z,1004.19
2019-05-26T08:56:55.321Z,1004.16
2019-05-26T08:57:54.093Z,1004.15
2019-05-26T08:58:52.769Z,1004.14
2019-05-26T08:59:51.614Z,1004.11
2019-05-26T09:00:52.106Z,1004.14
2019-05-26T09:01:50.703Z,1004.15
2019-05-26T09:02:50.206Z,1004.12
2019-05-26T09:03:48.754Z,1004.18
2019-05-26T09:04:47.333Z,1004.16
2019-05-26T09:05:45.918Z,1004.19
2019-05-26T09:06:44.465Z,1004.16
2019-05-26T09:07:43.263Z,1004.15
2019-05-26T09:08:41.841Z,1004.18
2019-05-26T09:09:40.653Z,1004.22
2019-05-26T09:10:39.654Z,1004.17
2019-05-26T09:11:38.338Z,1004.16
2019-05-26T09:12:37.279Z,1004.16
2019-05-26T09:13:35.898Z,1004.16
2019-05-26T09:14:34.457Z,1004.15
2019-05-26T09:15:33.051Z,1004.12
2019-05-26T09:19:12.084Z,1004.08
2019-05-26T09:20:11.690Z,1004.07
2019-05-26T09:21:09.358Z,1004.07
2019-05-26T09:22:07.926Z,1004.04
2019-05-26T09:23:06.511Z,1003.99
2019-05-26T09:24:05.368Z,1004.02
2019-05-26T09:27:38.929Z,1004.03
2019-05-26T09:28:37.727Z,1004.06
2019-05-26T09:29:36.421Z,1004.04
2019-05-26T09:30:36.069Z,1004.05
2019-05-26T09:47:12.828Z,1003.94
2019-05-26T09:48:11.379Z,1003.93
2019-05-26T09:49:10.039Z,1003.95
2019-05-26T09:50:08.788Z,1003.93
2019-05-26T09:51:07.721Z,1003.92
2019-05-26T09:52:06.379Z,1003.97
2019-05-26T09:53:05.086Z,1003.91
2019-05-26T09:54:03.889Z,1003.89
2019-05-26T09:55:02.489Z,1003.91
2019-05-26T09:56:01.304Z,1003.93
2019-05-26T09:56:59.980Z,1003.94
2019-05-26T09:57:58.530Z,1003.93
2019-05-26T09:58:57.332Z,1003.96
2019-05-26T09:59:55.925Z,1003.91
2019-05-26T10:00:54.521Z,1003.91
2019-05-26T10:01:54.035Z,1003.88
2019-05-26T10:02:51.946Z,1003.86
2019-05-26T10:03:50.743Z,1003.87
2019-05-26T10:04:49.523Z,1003.87
2019-05-26T10:05:48.115Z,1003.87
2019-05-26T10:06:46.843Z,1003.87
2019-05-26T10:07:45.485Z,1003.88
2019-05-26T10:08:44.023Z,1003.86
2019-05-26T10:09:42.677Z,1003.87
2019-05-26T10:10:41.288Z,1003.9
2019-05-26T10:11:39.857Z,1003.81
2019-05-26T10:12:38.491Z,1003.82
2019-05-26T10:13:37.122Z,1003.81
2019-05-26T10:14:35.881Z,1003.74
2019-05-26T10:15:34.616Z,1003.7
2019-05-26T10:16:33.198Z,1003.76
2019-05-26T10:17:31.732Z,1003.78
2019-05-26T10:18:30.340Z,1003.77
2019-05-26T10:19:29.121Z,1003.8
2019-05-26T10:20:27.818Z,1003.78
2019-05-26T10:21:26.690Z,1003.79
2019-05-26T10:22:25.262Z,1003.84
2019-05-26T10:23:23.827Z,1003.78
2019-05-26T10:24:22.381Z,1003.81
2019-05-26T10:25:20.971Z,1003.81
2019-05-26T10:26:19.772Z,1003.8
2019-05-26T10:27:18.446Z,1003.77
2019-05-26T10:28:17.338Z,1003.78
2019-05-26T10:29:15.986Z,1003.75
2019-05-26T10:30:14.699Z,1003.71
2019-05-26T10:31:13.359Z,1003.75
2019-05-26T10:32:12.060Z,1003.68
2019-05-26T10:33:10.628Z,1003.73
2019-05-26T10:34:09.310Z,1003.7
2019-05-26T10:35:07.871Z,1003.65
2019-05-26T10:36:06.419Z,1003.67
2019-05-26T10:37:05.012Z,1003.71
2019-05-26T10:38:03.604Z,1003.68
2019-05-26T10:39:02.207Z,1003.68
2019-05-26T10:40:00.994Z,1003.64
2019-05-26T10:40:59.830Z,1003.6
2019-05-26T10:41:58.462Z,1003.62
2019-05-26T10:42:57.012Z,1003.59
2019-05-26T10:43:55.712Z,1003.58
2019-05-26T10:44:54.314Z,1003.57
2019-05-26T10:45:53.042Z,1003.59
2019-05-26T10:46:51.863Z,1003.58
2019-05-26T10:47:50.335Z,1003.59
2019-05-26T10:48:48.935Z,1003.49
2019-05-26T10:49:47.569Z,1003.51
2019-05-26T10:50:46.757Z,1003.58
2019-05-26T10:51:45.619Z,1003.53
2019-05-26T10:52:44.231Z,1003.51
2019-05-26T10:53:42.832Z,1003.58
2019-05-26T10:54:41.740Z,1003.6
2019-05-26T10:55:40.449Z,1003.61
2019-05-26T10:56:39.158Z,1003.53
2019-05-26T10:57:37.782Z,1003.55
2019-05-26T10:58:36.484Z,1003.55
2019-05-26T10:59:35.252Z,1003.45
2019-05-26T11:00:33.879Z,1003.46
2019-05-26T11:01:32.516Z,1003.39
2019-05-26T11:02:31.350Z,1003.41
2019-05-26T11:03:29.959Z,1003.42
2019-05-26T11:04:28.580Z,1003.45
2019-05-26T11:05:27.402Z,1003.44
2019-05-26T11:06:26.034Z,1003.4
2019-05-26T11:07:26.841Z,1003.37
2019-05-26T11:08:23.403Z,1003.35
2019-05-26T11:09:21.961Z,1003.38
2019-05-26T11:10:20.672Z,1003.34
2019-05-26T11:11:19.486Z,1003.3
2019-05-26T11:12:18.245Z,1003.37
2019-05-26T11:13:16.880Z,1003.3
2019-05-26T11:14:15.449Z,1003.35
2019-05-26T11:15:14.032Z,1003.35
2019-05-26T11:16:12.601Z,1003.34
2019-05-26T11:18:52.732Z,1003.36
2019-05-26T11:19:51.526Z,1003.31
2019-05-26T11:20:50.131Z,1003.31
2019-05-26T11:21:48.932Z,1003.31
2019-05-26T11:22:47.520Z,1003.35
2019-05-26T11:23:46.094Z,1003.32
2019-05-26T11:27:11.247Z,1003.23
2019-05-26T11:28:06.361Z,1003.21
2019-05-26T11:29:04.985Z,1003.24
2019-05-26T11:30:03.615Z,1003.23
2019-05-26T11:31:02.199Z,1003.2
2019-05-26T11:32:01.057Z,1003.19
2019-05-26T11:32:59.859Z,1003.18
2019-05-26T11:33:58.416Z,1003.16
2019-05-26T11:35:01.386Z,1003.09
2019-05-26T11:35:55.634Z,1003.03
2019-05-26T11:36:54.373Z,1003.05
2019-05-26T11:37:52.754Z,1003.05
2019-05-26T11:38:51.341Z,1003
2019-05-26T11:39:49.916Z,1003.02
2019-05-26T11:40:48.799Z,1003.02
2019-05-26T11:41:54.542Z,1003
2019-05-26T11:42:46.258Z,1003.01
2019-05-26T11:43:44.811Z,1003.04
2019-05-26T11:44:43.380Z,1002.99
2019-05-26T11:45:42.039Z,1002.95
2019-05-26T11:46:40.690Z,1002.95
2019-05-26T11:47:39.371Z,1002.94
2019-05-26T11:48:39.240Z,1003.06
2019-05-26T11:49:36.528Z,1003
2019-05-26T11:50:35.314Z,1002.94
2019-05-26T11:53:15.742Z,1002.89
2019-05-26T11:54:14.292Z,1002.92
2019-05-26T11:55:12.981Z,1002.95
2019-05-26T11:56:11.613Z,1002.87
2019-05-26T11:57:10.202Z,1002.95
2019-05-26T11:58:08.785Z,1002.9
2019-05-26T11:59:07.388Z,1002.91
2019-05-26T12:00:05.933Z,1002.87
2019-05-26T12:01:04.641Z,1002.92
2019-05-26T12:02:03.409Z,1002.93
2019-05-26T12:03:01.971Z,1002.87
2019-05-26T12:04:00.551Z,1002.86
2019-05-26T12:04:59.452Z,1002.86
2019-05-26T12:05:58.020Z,1002.86
2019-05-26T12:06:56.619Z,1002.84
2019-05-26T12:07:55.175Z,1002.79
2019-05-26T12:08:53.721Z,1002.84
2019-05-26T12:09:52.277Z,1002.81
2019-05-26T12:12:14.974Z,1002.76
2019-05-26T12:13:13.644Z,1002.78
2019-05-26T12:14:12.214Z,1002.72
2019-05-26T12:15:10.906Z,1002.73
2019-05-26T12:16:09.536Z,1002.74
2019-05-26T12:17:08.095Z,1002.75
2019-05-26T12:18:06.690Z,1002.69
2019-05-26T12:19:05.471Z,1002.64
2019-05-26T12:20:05.194Z,1002.67
2019-05-26T12:21:02.639Z,1002.68
2019-05-26T12:23:43.247Z,1002.78
2019-05-26T12:24:41.908Z,1002.73
2019-05-26T12:25:41.051Z,1002.71
2019-05-26T12:26:39.619Z,1002.69
2019-05-26T12:27:38.252Z,1002.65
2019-05-26T12:28:37.141Z,1002.7
2019-05-26T12:52:13.122Z,1002.36
2019-05-26T12:55:52.207Z,1002.3
2019-05-26T12:56:51.178Z,1002.3
2019-05-26T12:57:50.666Z,1002.3
2019-05-26T12:58:49.503Z,1002.31
2019-05-26T12:59:48.102Z,1002.28
2019-05-26T13:00:49.540Z,1002.24
2019-05-26T13:01:45.293Z,1002.27
2019-05-26T13:02:44.354Z,1002.25
2019-05-26T13:03:43.159Z,1002.32
2019-05-26T13:10:06.193Z,1002.19
2019-05-26T13:11:05.015Z,1002.15
2019-05-26T13:13:45.201Z,1002.19
2019-05-26T13:14:43.871Z,1002.22
2019-05-26T13:17:24.210Z,1002.13
2019-05-26T13:18:23.031Z,1002.18
2019-05-26T13:19:21.600Z,1002.09
2019-05-26T13:20:20.188Z,1002.05
2019-05-26T13:21:18.776Z,1002.09
2019-05-26T13:22:17.492Z,1002.04
2019-05-26T13:23:16.081Z,1002.02
2019-05-26T13:24:18.006Z,1002.05
2019-05-26T13:25:13.589Z,1002.06
2019-05-26T13:26:12.188Z,1002.07
2019-05-26T13:27:11.051Z,1002.09
2019-05-26T13:28:09.696Z,1002.07
2019-05-26T13:29:08.371Z,1002.03
2019-05-26T13:30:07.033Z,1002.06
2019-05-26T13:31:05.717Z,1002.07
2019-05-26T13:42:45.706Z,1001.95
2019-05-26T13:43:44.494Z,1001.99
2019-05-26T13:44:43.148Z,1001.98
2019-05-26T13:47:26.391Z,1001.94
2019-05-26T13:48:22.638Z,1001.92
2019-05-26T14:15:37.809Z,1001.83
2019-05-26T14:16:28.776Z,1001.84
2019-05-26T14:19:08.873Z,1001.78
2019-05-26T14:20:07.777Z,1001.78
2019-05-26T14:21:06.338Z,1001.81
2019-05-26T14:22:05.212Z,1001.82
2019-05-26T14:23:03.791Z,1001.79
2019-05-26T14:24:02.331Z,1001.82